createdAt,value
2022-10-08T00:01:51.293Z,56.20
2022-10-08T00:04:18.569Z,53.60
2022-10-08T00:06:45.788Z,54.83
2022-10-08T00:09:12.865Z,55.20
2022-10-08T00:11:40.684Z,78.80
2022-10-08T00:14:08.093Z,66.93
2022-10-08T00:16:36.265Z,77.30
2022-10-08T00:19:04.422Z,67.72
2022-10-08T00:21:32.542Z,64.85
2022-10-08T00:23:59.902Z,70.03
2022-10-08T00:26:28.067Z,57.05
2022-10-08T00:28:56.141Z,59.95
2022-10-08T00:31:31.260Z,64.75
2022-10-08T00:33:58.912Z,68.57
2022-10-08T00:36:26.993Z,58.22
2022-10-08T00:38:57.422Z,54.83
2022-10-08T00:41:25.322Z,54.92
2022-10-08T00:43:53.427Z,94.40
2022-10-08T00:46:43.813Z,78.90
2022-10-08T00:49:13.911Z,84.32
2022-10-08T00:51:44.822Z,85.15
2022-10-08T00:54:12.035Z,72.57
2022-10-08T00:56:40.020Z,79.70
2022-10-08T00:59:07.392Z,70.68
2022-10-08T01:01:34.606Z,59.65
2022-10-08T01:04:02.817Z,60.35
2022-10-08T01:06:30.877Z,79.78
2022-10-08T01:09:05.910Z,48.70
2022-10-08T01:11:51.839Z,49.20
2022-10-08T01:14:31.204Z,125.45
2022-10-08T01:17:08.418Z,52.80
2022-10-08T01:19:54.840Z,58.35
2022-10-08T01:22:40.710Z,55.08
2022-10-08T01:25:32.377Z,47.65
2022-10-08T01:28:10.887Z,76.80
2022-10-08T01:30:39.160Z,42.40
2022-10-08T01:33:20.199Z,53.95
2022-10-08T01:35:48.763Z,42.90
2022-10-08T01:38:16.750Z,37.25
2022-10-08T01:40:44.376Z,36.55
2022-10-08T01:43:11.742Z,33.85
2022-10-08T01:45:39.699Z,31.27
2022-10-08T01:48:07.510Z,25.60
2022-10-08T01:50:36.923Z,54.63
2022-10-08T01:53:09.486Z,28.33
2022-10-08T01:55:37.646Z,52.35
2022-10-08T01:58:05.341Z,35.28
2022-10-08T02:00:33.965Z,99.82
2022-10-08T02:03:01.054Z,40.20
2022-10-08T02:05:29.130Z,83.78
2022-10-08T02:07:56.320Z,52.00
2022-10-08T02:10:23.969Z,42.47
2022-10-08T02:12:51.120Z,37.67
2022-10-08T02:15:18.984Z,57.65
2022-10-08T02:17:51.109Z,37.60
2022-10-08T02:20:21.253Z,46.78
2022-10-08T02:22:53.690Z,32.70
2022-10-08T02:25:23.258Z,30.33
2022-10-08T02:27:51.760Z,30.13
2022-10-08T02:30:18.919Z,27.48
2022-10-08T02:32:53.872Z,28.65
2022-10-08T02:35:25.617Z,30.63
2022-10-08T02:37:58.411Z,23.98
2022-10-08T02:40:25.505Z,29.48
2022-10-08T02:42:53.802Z,22.00
2022-10-08T02:45:22.259Z,20.98
2022-10-08T02:47:50.291Z,28.48
2022-10-08T02:50:18.018Z,23.88
2022-10-08T02:52:48.444Z,21.65
2022-10-08T02:55:19.339Z,19.58
2022-10-08T02:57:47.366Z,22.65
2022-10-08T03:00:14.539Z,22.23
2022-10-08T03:02:55.967Z,28.52
2022-10-08T03:05:23.152Z,20.08
2022-10-08T03:07:51.076Z,22.27
2022-10-08T03:10:19.785Z,21.58
2022-10-08T03:12:47.124Z,22.83
2022-10-08T03:15:14.594Z,27.58
2022-10-08T03:17:42.647Z,26.40
2022-10-08T03:20:09.959Z,23.13
2022-10-08T03:22:37.047Z,23.65
2022-10-08T03:25:04.385Z,22.92
2022-10-08T03:27:31.553Z,21.83
2022-10-08T03:29:58.692Z,18.83
2022-10-08T03:32:25.882Z,19.08
2022-10-08T03:34:53.149Z,17.52
2022-10-08T03:37:20.666Z,17.38
2022-10-08T03:39:47.790Z,20.80
2022-10-08T03:42:14.929Z,22.25
2022-10-08T03:44:42.083Z,19.50
2022-10-08T03:47:09.169Z,18.40
2022-10-08T03:49:36.346Z,21.17
2022-10-08T03:52:03.430Z,27.55
2022-10-08T03:54:30.538Z,28.55
2022-10-08T03:56:57.647Z,33.50
2022-10-08T03:59:24.774Z,29.98
2022-10-08T04:01:51.983Z,35.37
2022-10-08T04:04:23.157Z,31.42
2022-10-08T04:06:52.562Z,38.35
2022-10-08T04:09:19.673Z,37.08
2022-10-08T04:11:46.783Z,36.38
2022-10-08T04:14:13.890Z,35.37
2022-10-08T04:16:41.039Z,35.15
2022-10-08T04:19:08.190Z,35.80
2022-10-08T04:21:35.292Z,31.63
2022-10-08T04:24:02.406Z,21.77
2022-10-08T04:26:29.574Z,22.50
2022-10-08T04:28:56.664Z,24.88
2022-10-08T04:31:24.027Z,34.40
2022-10-08T04:33:51.675Z,30.08
2022-10-08T04:36:19.676Z,31.55
2022-10-08T04:38:46.999Z,30.15
2022-10-08T04:41:15.020Z,29.75
2022-10-08T04:43:42.530Z,30.35
2022-10-08T04:46:10.317Z,37.30
2022-10-08T04:48:37.639Z,35.72
2022-10-08T04:51:10.055Z,32.70
2022-10-08T04:53:37.815Z,30.60
2022-10-08T04:56:08.807Z,35.33
2022-10-08T04:58:35.899Z,37.60
2022-10-08T05:01:03.923Z,32.47
2022-10-08T05:03:31.233Z,35.65
2022-10-08T05:05:58.342Z,36.35
2022-10-08T05:08:25.473Z,56.90
2022-10-08T05:10:52.572Z,52.77
2022-10-08T05:13:21.078Z,54.30
2022-10-08T05:15:48.742Z,51.10
2022-10-08T05:18:15.916Z,45.85
2022-10-08T05:20:43.018Z,46.55
2022-10-08T05:23:10.133Z,43.38
2022-10-08T05:25:37.439Z,60.53
2022-10-08T05:28:04.687Z,62.25
2022-10-08T05:30:31.864Z,62.45
2022-10-08T05:32:58.964Z,63.60
2022-10-08T05:35:26.104Z,76.45
2022-10-08T05:37:53.253Z,60.08
2022-10-08T05:40:20.918Z,56.97
2022-10-08T05:42:48.259Z,36.88
2022-10-08T05:45:15.584Z,36.30
2022-10-08T05:47:42.684Z,35.37
2022-10-08T05:50:09.975Z,36.67
2022-10-08T05:52:37.141Z,33.00
2022-10-08T05:55:04.326Z,42.97
2022-10-08T05:57:31.418Z,42.07
2022-10-08T05:59:58.754Z,40.00
2022-10-08T06:02:25.917Z,40.67
2022-10-08T06:04:53.116Z,38.65
2022-10-08T06:07:21.414Z,39.88
2022-10-08T06:09:48.510Z,37.75
2022-10-08T06:12:15.597Z,49.10
2022-10-08T06:14:42.714Z,48.73
2022-10-08T06:17:09.890Z,44.88
2022-10-08T06:19:37.300Z,51.45
2022-10-08T06:22:05.063Z,52.63
2022-10-08T06:24:32.175Z,47.63
2022-10-08T06:26:59.275Z,50.15
2022-10-08T06:29:26.411Z,39.25
2022-10-08T06:31:53.615Z,40.50
2022-10-08T06:34:20.849Z,32.85
2022-10-08T06:36:48.013Z,33.38
2022-10-08T06:39:15.690Z,28.70
2022-10-08T06:41:42.932Z,35.15
2022-10-08T06:44:12.117Z,39.55
2022-10-08T06:46:39.349Z,35.72
2022-10-08T06:49:06.637Z,33.45
2022-10-08T06:51:33.893Z,37.00
2022-10-08T06:54:07.355Z,32.40
2022-10-08T06:56:36.211Z,44.65
2022-10-08T06:59:03.615Z,55.97
2022-10-08T07:01:33.831Z,58.47
2022-10-08T07:04:01.739Z,54.25
2022-10-08T07:06:29.171Z,56.80
2022-10-08T07:08:56.980Z,54.45
2022-10-08T07:11:24.301Z,49.72
2022-10-08T07:13:51.435Z,52.45
2022-10-08T07:16:21.097Z,51.47
2022-10-08T07:18:48.904Z,44.95
2022-10-08T07:21:16.359Z,42.30
2022-10-08T07:23:43.600Z,37.72
2022-10-08T07:26:14.463Z,42.67
2022-10-08T07:28:42.919Z,37.80
2022-10-08T07:31:17.489Z,37.30
2022-10-08T07:33:44.678Z,40.80
2022-10-08T07:36:12.034Z,39.83
2022-10-08T07:38:39.435Z,35.78
2022-10-08T07:41:06.671Z,36.85
2022-10-08T07:43:33.950Z,35.50
2022-10-08T07:46:01.163Z,33.70
2022-10-08T07:48:33.677Z,26.40
2022-10-08T07:51:14.188Z,27.20
2022-10-08T07:53:41.377Z,20.73
2022-10-08T07:56:08.917Z,17.70
2022-10-08T07:58:36.099Z,23.15
2022-10-08T08:01:03.845Z,17.73
2022-10-08T08:03:31.033Z,18.58
2022-10-08T08:06:07.451Z,14.07
2022-10-08T08:08:35.304Z,18.48
2022-10-08T08:11:03.125Z,20.23
2022-10-08T08:13:34.440Z,19.17
2022-10-08T08:16:07.033Z,19.35
2022-10-08T08:18:35.063Z,16.40
2022-10-08T08:21:02.683Z,13.02
2022-10-08T08:23:31.382Z,17.67
2022-10-08T08:26:04.820Z,17.92
2022-10-08T08:28:31.951Z,12.52
2022-10-08T08:31:14.349Z,16.45
2022-10-08T08:33:41.554Z,10.13
2022-10-08T08:36:08.732Z,11.65
2022-10-08T08:38:36.317Z,17.10
2022-10-08T08:41:12.675Z,13.43
2022-10-08T08:43:40.690Z,9.60
2022-10-08T08:46:07.863Z,10.38
2022-10-08T08:48:37.078Z,7.13
2022-10-08T08:51:04.415Z,7.05
2022-10-08T08:53:31.588Z,7.07
2022-10-08T08:55:59.843Z,6.05
2022-10-08T08:58:34.454Z,9.07
2022-10-08T09:01:04.644Z,7.53
2022-10-08T09:03:35.710Z,6.07
2022-10-08T09:06:05.228Z,8.95
2022-10-08T09:08:32.310Z,7.82
2022-10-08T09:11:01.564Z,6.28
2022-10-08T09:13:32.687Z,6.85
2022-10-08T09:15:59.822Z,9.25
2022-10-08T09:18:26.968Z,8.93
2022-10-08T09:20:54.047Z,7.32
2022-10-08T09:23:22.270Z,7.18
2022-10-08T09:26:09.637Z,10.18
2022-10-08T09:28:45.876Z,8.52
2022-10-08T09:31:14.096Z,7.50
2022-10-08T09:33:41.691Z,6.82
2022-10-08T09:36:08.821Z,7.68
2022-10-08T09:38:39.157Z,7.07
2022-10-08T09:41:07.400Z,6.72
2022-10-08T09:43:34.964Z,6.72
2022-10-08T09:46:11.171Z,5.72
2022-10-08T09:48:39.605Z,5.20
2022-10-08T09:51:16.103Z,6.15
2022-10-08T09:53:53.108Z,5.07
2022-10-08T09:56:27.560Z,4.32
2022-10-08T09:58:56.930Z,5.03
2022-10-08T10:01:25.438Z,6.18
2022-10-08T10:03:56.430Z,5.25
2022-10-08T10:06:26.588Z,5.70
2022-10-08T10:08:56.504Z,3.85
2022-10-08T10:11:31.204Z,4.45
2022-10-08T10:13:58.311Z,5.43
2022-10-08T10:16:39.118Z,4.38
2022-10-08T10:19:08.741Z,3.65
2022-10-08T10:21:37.345Z,6.70
2022-10-08T10:24:43.139Z,7.85
2022-10-08T10:27:11.516Z,6.05
2022-10-08T10:29:43.168Z,3.53
2022-10-08T10:32:23.374Z,5.70
2022-10-08T10:34:55.466Z,3.60
2022-10-08T10:37:25.900Z,6.68
2022-10-08T10:39:54.615Z,3.40
2022-10-08T10:42:24.723Z,5.53
2022-10-08T10:45:18.017Z,5.78
2022-10-08T10:47:45.141Z,4.10
2022-10-08T10:50:15.471Z,7.35
2022-10-08T10:52:45.969Z,4.55
2022-10-08T10:55:13.194Z,9.45
2022-10-08T10:57:40.265Z,5.82
2022-10-08T11:00:09.694Z,4.40
2022-10-08T11:02:43.061Z,5.50
2022-10-08T11:05:28.780Z,6.22
2022-10-08T11:08:19.131Z,4.55
2022-10-08T11:10:58.627Z,4.15
2022-10-08T11:13:44.326Z,3.92
2022-10-08T11:16:23.648Z,4.85
2022-10-08T11:18:52.019Z,8.45
2022-10-08T11:21:34.711Z,6.03
2022-10-08T11:24:07.578Z,6.97
2022-10-08T11:26:38.959Z,3.83
2022-10-08T11:29:12.025Z,4.88
2022-10-08T11:31:42.740Z,4.25
2022-10-08T11:34:15.259Z,9.55
2022-10-08T11:36:44.731Z,4.00
2022-10-08T11:39:21.507Z,4.50
2022-10-08T11:41:57.200Z,4.40
2022-10-08T11:44:24.258Z,5.20
2022-10-08T11:46:51.349Z,4.57
2022-10-08T11:49:22.451Z,4.25
2022-10-08T11:51:52.991Z,4.13
2022-10-08T11:54:34.626Z,6.72
2022-10-08T11:57:17.377Z,4.70
2022-10-08T11:59:44.918Z,6.40
2022-10-08T12:02:31.175Z,4.82
2022-10-08T12:04:59.270Z,4.90
2022-10-08T12:07:32.457Z,6.93
2022-10-08T12:10:09.026Z,4.60
2022-10-08T12:12:51.218Z,4.70
2022-10-08T12:15:24.369Z,9.98
2022-10-08T12:17:51.452Z,4.75
2022-10-08T12:20:19.962Z,4.80
2022-10-08T12:22:59.678Z,5.05
2022-10-08T12:25:29.708Z,4.80
2022-10-08T12:28:16.824Z,5.15
2022-10-08T12:30:54.140Z,4.65
2022-10-08T12:33:21.330Z,5.28
2022-10-08T12:36:07.277Z,4.95
2022-10-08T12:39:07.014Z,5.50
2022-10-08T12:41:42.919Z,4.78
2022-10-08T12:44:21.892Z,5.50
2022-10-08T12:46:59.407Z,6.05
2022-10-08T12:49:36.804Z,4.47
2022-10-08T12:52:06.961Z,4.75
2022-10-08T12:54:34.084Z,5.80
2022-10-08T12:57:01.426Z,6.45
2022-10-08T12:59:31.550Z,4.97
2022-10-08T13:01:58.885Z,5.60
2022-10-08T13:04:26.933Z,5.32
2022-10-08T13:06:54.677Z,6.00
2022-10-08T13:09:27.708Z,5.13
2022-10-08T13:11:59.418Z,4.93
2022-10-08T13:14:30.551Z,4.78
2022-10-08T13:16:57.896Z,4.85
2022-10-08T13:19:33.986Z,4.97
2022-10-08T13:22:01.897Z,5.32
2022-10-08T13:24:30.078Z,6.00
2022-10-08T13:26:57.347Z,4.93
2022-10-08T13:29:26.147Z,6.63
2022-10-08T13:31:53.269Z,7.00
2022-10-08T13:34:20.382Z,6.50
2022-10-08T13:36:48.374Z,6.45
2022-10-08T13:39:22.539Z,5.70
2022-10-08T13:41:52.490Z,7.00
2022-10-08T13:44:19.677Z,9.75
2022-10-08T13:46:47.119Z,6.00
2022-10-08T13:49:21.169Z,6.05
2022-10-08T13:51:48.779Z,5.50
2022-10-08T13:54:17.747Z,5.85
2022-10-08T13:56:44.827Z,6.25
2022-10-08T13:59:11.978Z,18.92
2022-10-08T14:01:39.170Z,25.70
2022-10-08T14:04:06.258Z,124.95
2022-10-08T14:06:33.369Z,25.80
2022-10-08T14:09:00.597Z,7.40
2022-10-08T14:11:27.721Z,10.20
2022-10-08T14:13:54.837Z,7.88
2022-10-08T14:16:21.991Z,9.68
2022-10-08T14:18:49.124Z,7.13
2022-10-08T14:21:16.633Z,7.07
2022-10-08T14:23:44.532Z,7.18
2022-10-08T14:26:14.495Z,7.25
2022-10-08T14:28:41.656Z,17.65
2022-10-08T14:31:10.436Z,18.23
2022-10-08T14:33:37.554Z,9.48
2022-10-08T14:36:05.342Z,25.98
2022-10-08T14:38:34.014Z,17.88
2022-10-08T14:41:01.103Z,9.77
2022-10-08T14:43:28.274Z,14.60
2022-10-08T14:45:55.407Z,9.93
2022-10-08T14:48:22.516Z,11.90
2022-10-08T14:50:49.647Z,17.75
2022-10-08T14:53:16.738Z,12.98
2022-10-08T14:56:07.478Z,11.63
2022-10-08T14:58:31.430Z,14.93
2022-10-08T15:00:58.718Z,13.40
2022-10-08T15:03:25.915Z,12.68
2022-10-08T15:05:53.494Z,11.68
2022-10-08T15:08:20.746Z,11.65
2022-10-08T15:10:47.963Z,10.13
2022-10-08T15:13:15.106Z,11.98
2022-10-08T15:15:42.835Z,9.07
2022-10-08T15:18:11.381Z,9.70
2022-10-08T15:20:38.914Z,10.52
2022-10-08T15:23:07.128Z,8.57
2022-10-08T15:25:34.459Z,8.70
2022-10-08T15:28:01.705Z,9.32
2022-10-08T15:30:28.815Z,10.57
2022-10-08T15:32:55.964Z,18.00
2022-10-08T15:35:23.224Z,14.02
2022-10-08T15:37:50.375Z,10.85
2022-10-08T15:40:17.529Z,11.30
2022-10-08T15:42:44.844Z,11.13
2022-10-08T15:45:12.185Z,13.23
2022-10-08T15:47:39.324Z,13.85
2022-10-08T15:50:06.765Z,10.45
2022-10-08T15:52:34.453Z,12.23
2022-10-08T15:55:02.610Z,14.45
2022-10-08T15:57:29.735Z,16.17
2022-10-08T15:59:58.317Z,13.15
2022-10-08T16:02:25.538Z,12.90
2022-10-08T16:04:53.376Z,13.00
2022-10-08T16:07:20.535Z,13.70
2022-10-08T16:09:47.640Z,15.10
2022-10-08T16:12:14.767Z,17.77
2022-10-08T16:14:41.877Z,15.32
2022-10-08T16:17:09.196Z,17.40
2022-10-08T16:19:36.367Z,25.02
2022-10-08T16:22:04.013Z,22.00
2022-10-08T16:24:31.094Z,23.45
2022-10-08T16:26:58.332Z,18.58
2022-10-08T16:29:25.428Z,17.27
2022-10-08T16:31:52.538Z,31.67
2022-10-08T16:34:23.086Z,22.52
2022-10-08T16:36:51.055Z,48.40
2022-10-08T16:39:19.074Z,38.65
2022-10-08T16:41:46.577Z,41.72
2022-10-08T16:44:14.758Z,56.65
2022-10-08T16:46:43.907Z,90.03
2022-10-08T16:49:19.647Z,68.72
2022-10-08T16:51:50.121Z,107.15
2022-10-08T16:54:17.490Z,69.68
2022-10-08T16:56:44.759Z,61.35
2022-10-08T16:59:13.172Z,61.22
2022-10-08T17:01:43.761Z,56.55
2022-10-08T17:04:11.006Z,63.17
2022-10-08T17:06:38.295Z,47.70
2022-10-08T17:09:05.500Z,45.05
2022-10-08T17:11:33.288Z,76.65
2022-10-08T17:14:00.520Z,63.67
2022-10-08T17:16:28.199Z,85.07
2022-10-08T17:18:55.671Z,62.92
2022-10-08T17:21:22.866Z,40.65
2022-10-08T17:23:50.037Z,77.97
2022-10-08T17:26:18.217Z,58.28
2022-10-08T17:28:45.889Z,101.35
2022-10-08T17:31:14.555Z,112.35
2022-10-08T17:33:41.889Z,118.13
2022-10-08T17:36:10.194Z,133.82
2022-10-08T17:38:37.526Z,178.48
2022-10-08T17:41:17.674Z,141.77
2022-10-08T17:43:44.904Z,109.53
2022-10-08T17:46:15.609Z,83.30
2022-10-08T17:48:42.824Z,72.55
2022-10-08T17:51:11.014Z,71.65
2022-10-08T17:53:38.171Z,70.63
2022-10-08T17:56:06.174Z,80.47
2022-10-08T17:58:33.403Z,87.22
2022-10-08T18:01:08.813Z,83.35
2022-10-08T18:03:36.257Z,85.13
2022-10-08T18:06:03.603Z,88.20
2022-10-08T18:08:30.768Z,87.85
2022-10-08T18:10:57.963Z,101.45
2022-10-08T18:13:25.143Z,99.78
2022-10-08T18:15:52.293Z,110.65
2022-10-08T18:18:19.548Z,116.05
2022-10-08T18:20:54.058Z,90.63
2022-10-08T18:23:21.254Z,76.97
2022-10-08T18:25:52.902Z,82.78
2022-10-08T18:28:21.988Z,81.28
2022-10-08T18:30:49.224Z,86.80
2022-10-08T18:33:16.442Z,89.82
2022-10-08T18:35:43.769Z,96.97
2022-10-08T18:38:10.871Z,104.75
2022-10-08T18:40:38.043Z,84.38
2022-10-08T18:43:05.161Z,77.15
2022-10-08T18:45:32.270Z,90.43
2022-10-08T18:47:59.425Z,95.82
2022-10-08T18:50:26.554Z,122.93
2022-10-08T18:52:53.669Z,121.05
2022-10-08T18:55:20.808Z,76.75
2022-10-08T18:57:47.927Z,68.53
2022-10-08T19:00:15.074Z,95.50
2022-10-08T19:02:42.324Z,103.40
2022-10-08T19:05:09.804Z,104.95
2022-10-08T19:07:36.932Z,102.35
2022-10-08T19:10:04.153Z,100.05
2022-10-08T19:12:31.585Z,102.63
2022-10-08T19:14:58.707Z,123.50
2022-10-08T19:17:25.790Z,114.20
2022-10-08T19:19:52.905Z,107.38
2022-10-08T19:22:20.065Z,112.45
2022-10-08T19:24:47.146Z,116.82
2022-10-08T19:27:14.260Z,117.03
2022-10-08T19:29:41.382Z,117.85
2022-10-08T19:32:08.482Z,112.10
2022-10-08T19:34:35.723Z,105.95
2022-10-08T19:37:02.826Z,113.38
2022-10-08T19:39:31.014Z,91.10
2022-10-08T19:41:58.229Z,64.18
2022-10-08T19:44:25.950Z,67.65
2022-10-08T19:46:53.122Z,79.97
2022-10-08T19:49:20.388Z,90.22
2022-10-08T19:51:47.604Z,67.53
2022-10-08T19:54:14.930Z,74.03
2022-10-08T19:56:42.306Z,67.68
2022-10-08T19:59:09.774Z,72.65
2022-10-08T20:01:37.122Z,72.88
2022-10-08T20:04:05.064Z,68.05
2022-10-08T20:06:32.496Z,62.50
2022-10-08T20:09:00.990Z,60.88
2022-10-08T20:11:28.265Z,54.40
2022-10-08T20:13:55.445Z,60.70
2022-10-08T20:16:23.489Z,61.55
2022-10-08T20:18:51.518Z,67.40
2022-10-08T20:21:18.660Z,54.63
2022-10-08T20:23:45.758Z,43.72
2022-10-08T20:26:19.912Z,41.58
2022-10-08T20:28:48.099Z,43.58
2022-10-08T20:31:15.406Z,51.88
2022-10-08T20:33:42.762Z,54.97
2022-10-08T20:36:10.251Z,49.03
2022-10-08T20:38:37.351Z,45.15
2022-10-08T20:41:04.750Z,43.65
2022-10-08T20:43:32.458Z,44.97
2022-10-08T20:46:03.135Z,46.75
2022-10-08T20:48:32.592Z,61.22
2022-10-08T20:51:03.241Z,61.47
2022-10-08T20:53:30.661Z,66.45
2022-10-08T20:55:57.861Z,57.22
2022-10-08T20:58:24.946Z,50.78
2022-10-08T21:00:52.087Z,58.40
2022-10-08T21:03:19.275Z,60.78
2022-10-08T21:05:46.668Z,62.67
2022-10-08T21:08:13.763Z,61.60
2022-10-08T21:10:40.880Z,60.75
2022-10-08T21:13:07.970Z,48.50
2022-10-08T21:15:35.137Z,45.80
2022-10-08T21:18:02.274Z,46.78
2022-10-08T21:20:29.383Z,41.88
2022-10-08T21:22:56.541Z,43.40
2022-10-08T21:25:23.653Z,46.00
2022-10-08T21:27:50.741Z,69.32
2022-10-08T21:30:17.912Z,57.67
2022-10-08T21:32:46.241Z,113.88
2022-10-08T21:35:13.630Z,133.13
2022-10-08T21:37:40.726Z,134.02
2022-10-08T21:40:08.049Z,116.75
2022-10-08T21:42:35.150Z,109.45
2022-10-08T21:45:02.306Z,86.50
2022-10-08T21:47:29.462Z,61.20
2022-10-08T21:49:56.602Z,64.35
2022-10-08T21:52:23.749Z,66.30
2022-10-08T21:54:50.866Z,60.90
2022-10-08T21:57:17.959Z,65.03
2022-10-08T21:59:45.108Z,64.90
2022-10-08T22:02:12.321Z,64.60
2022-10-08T22:04:39.448Z,68.32
2022-10-08T22:07:06.580Z,62.45
2022-10-08T22:09:34.841Z,58.25
2022-10-08T22:12:02.294Z,63.45
2022-10-08T22:14:29.492Z,73.60
2022-10-08T22:16:56.758Z,71.90
2022-10-08T22:19:23.938Z,61.88
2022-10-08T22:21:51.006Z,56.60
2022-10-08T22:24:18.180Z,67.60
2022-10-08T22:26:46.003Z,67.47
2022-10-08T22:29:13.158Z,64.45
2022-10-08T22:31:40.324Z,63.85
2022-10-08T22:34:07.495Z,63.53
2022-10-08T22:36:37.034Z,61.97
2022-10-08T22:39:04.320Z,53.15
2022-10-08T22:41:31.831Z,61.72
2022-10-08T22:43:59.077Z,50.25
2022-10-08T22:46:26.933Z,59.03
2022-10-08T22:48:57.964Z,59.80
2022-10-08T22:51:25.113Z,55.53
2022-10-08T22:53:52.265Z,52.03
2022-10-08T22:56:23.292Z,48.28
2022-10-08T22:58:50.464Z,48.67
2022-10-08T23:01:18.670Z,46.35
2022-10-08T23:03:45.895Z,37.47
2022-10-08T23:06:26.285Z,38.45
2022-10-08T23:08:54.362Z,37.67
2022-10-08T23:11:21.519Z,43.67
2022-10-08T23:13:55.705Z,45.53
2022-10-08T23:16:22.984Z,74.18
2022-10-08T23:18:54.202Z,62.00
2022-10-08T23:21:21.362Z,56.25
2022-10-08T23:23:48.579Z,53.05
2022-10-08T23:26:16.059Z,41.47
2022-10-08T23:28:43.539Z,33.60
2022-10-08T23:31:11.864Z,37.05
2022-10-08T23:33:39.351Z,33.10
2022-10-08T23:36:06.940Z,26.45
2022-10-08T23:38:34.347Z,24.45
2022-10-08T23:41:01.713Z,27.75
2022-10-08T23:43:29.190Z,24.65
2022-10-08T23:45:56.766Z,24.48
2022-10-08T23:48:23.981Z,18.30
2022-10-08T23:50:54.027Z,17.75
2022-10-08T23:53:21.239Z,20.58
2022-10-08T23:55:48.504Z,17.58
2022-10-08T23:58:17.820Z,15.80
